createdAt,value
2017-09-27T00:00:58.222Z,10.40
2017-09-27T00:03:25.922Z,10.40
2017-09-27T00:05:53.578Z,10.30
2017-09-27T00:08:21.261Z,10.30
2017-09-27T00:10:49.003Z,10.30
2017-09-27T00:13:16.757Z,10.20
2017-09-27T00:15:44.503Z,10.00
2017-09-27T00:18:12.251Z,9.80
2017-09-27T00:20:39.997Z,9.70
2017-09-27T00:23:07.646Z,9.70
2017-09-27T00:25:35.389Z,9.80
2017-09-27T00:28:03.136Z,9.80
2017-09-27T00:30:30.807Z,9.90
2017-09-27T00:32:58.528Z,9.90
2017-09-27T00:35:26.204Z,10.00
2017-09-27T00:37:53.932Z,10.00
2017-09-27T00:40:21.642Z,10.10
2017-09-27T00:42:49.312Z,10.10
2017-09-27T00:45:17.063Z,10.10
2017-09-27T00:47:44.809Z,10.10
2017-09-27T00:50:12.556Z,10.10
2017-09-27T00:52:40.251Z,10.10
2017-09-27T00:55:08.042Z,10.10
2017-09-27T00:57:35.798Z,10.20
2017-09-27T01:00:03.488Z,10.30
2017-09-27T01:02:31.298Z,10.30
2017-09-27T01:04:59.040Z,10.30
2017-09-27T01:07:26.787Z,10.30
2017-09-27T01:09:54.537Z,10.40
2017-09-27T01:12:22.284Z,10.40
2017-09-27T01:14:50.029Z,10.30
2017-09-27T01:17:17.731Z,10.40
2017-09-27T01:19:45.424Z,10.40
2017-09-27T01:22:13.274Z,10.40
2017-09-27T01:24:41.067Z,10.40
2017-09-27T01:27:08.748Z,10.50
2017-09-27T01:29:36.462Z,10.30
2017-09-27T01:32:04.606Z,10.30
2017-09-27T01:34:32.417Z,10.40
2017-09-27T01:37:00.160Z,10.40
2017-09-27T01:39:27.975Z,10.50
2017-09-27T01:41:55.703Z,10.40
2017-09-27T01:44:23.922Z,10.30
2017-09-27T01:46:51.784Z,10.30
2017-09-27T01:49:19.511Z,10.30
2017-09-27T01:51:47.220Z,10.30
2017-09-27T01:54:14.995Z,10.30
2017-09-27T01:56:42.727Z,10.30
2017-09-27T01:59:10.507Z,10.20
2017-09-27T02:01:38.357Z,10.30
2017-09-27T02:04:06.055Z,10.20
2017-09-27T02:06:33.954Z,10.20
2017-09-27T02:09:01.795Z,10.20
2017-09-27T02:11:29.550Z,10.10
2017-09-27T02:13:57.215Z,10.10
2017-09-27T02:16:24.945Z,10.00
2017-09-27T02:18:52.693Z,10.00
2017-09-27T02:21:20.343Z,9.90
2017-09-27T02:23:48.057Z,9.80
2017-09-27T02:26:15.702Z,9.90
2017-09-27T02:28:43.375Z,9.90
2017-09-27T02:31:11.079Z,9.90
2017-09-27T02:33:38.723Z,9.80
2017-09-27T02:36:06.411Z,9.70
2017-09-27T02:38:34.362Z,9.70
2017-09-27T02:41:02.023Z,9.70
2017-09-27T02:43:29.663Z,9.80
2017-09-27T02:45:57.366Z,9.80
2017-09-27T02:48:25.010Z,9.90
2017-09-27T02:50:52.664Z,9.90
2017-09-27T02:53:20.542Z,9.90
2017-09-27T02:55:48.186Z,9.80
2017-09-27T02:58:15.933Z,9.80
2017-09-27T03:00:43.638Z,9.80
2017-09-27T03:03:11.324Z,9.80
2017-09-27T03:05:38.983Z,9.80
2017-09-27T03:08:07.098Z,9.70
2017-09-27T03:10:34.731Z,9.70
2017-09-27T03:13:02.379Z,9.60
2017-09-27T03:15:30.099Z,9.70
2017-09-27T03:17:57.759Z,9.60
2017-09-27T03:20:25.407Z,9.50
2017-09-27T03:22:53.178Z,9.50
2017-09-27T03:25:20.951Z,9.40
2017-09-27T03:27:48.657Z,9.40
2017-09-27T03:30:16.445Z,9.40
2017-09-27T03:32:44.191Z,9.40
2017-09-27T03:35:12.042Z,9.40
2017-09-27T03:37:40.083Z,9.30
2017-09-27T03:40:07.841Z,9.30
2017-09-27T03:42:35.491Z,9.40
2017-09-27T03:45:03.238Z,9.30
2017-09-27T03:47:30.981Z,9.30
2017-09-27T03:49:58.638Z,9.30
2017-09-27T03:52:26.351Z,9.30
2017-09-27T03:54:54.022Z,9.30
2017-09-27T03:57:21.768Z,9.20
2017-09-27T03:59:49.619Z,9.20
2017-09-27T04:02:17.275Z,9.30
2017-09-27T04:04:45.011Z,9.30
2017-09-27T04:07:12.748Z,9.30
2017-09-27T04:09:40.504Z,9.40
2017-09-27T04:12:08.160Z,9.30
2017-09-27T04:14:35.870Z,9.30
2017-09-27T04:17:03.540Z,9.50
2017-09-27T04:19:31.287Z,9.50
2017-09-27T04:21:59.138Z,9.50
2017-09-27T04:24:26.884Z,9.40
2017-09-27T04:26:54.634Z,9.30
2017-09-27T04:29:22.339Z,9.30
2017-09-27T04:31:50.004Z,9.30
2017-09-27T04:34:17.708Z,9.30
2017-09-27T04:36:45.522Z,9.30
2017-09-27T04:39:13.174Z,9.30
2017-09-27T04:41:40.913Z,9.30
2017-09-27T04:44:08.623Z,9.20
2017-09-27T04:46:36.282Z,9.20
2017-09-27T04:49:03.939Z,9.20
2017-09-27T04:51:31.700Z,9.20
2017-09-27T04:53:59.350Z,9.10
2017-09-27T04:56:27.089Z,9.10
2017-09-27T04:58:54.791Z,9.10
2017-09-27T05:01:22.483Z,9.10
2017-09-27T05:03:50.232Z,9.20
2017-09-27T05:06:18.172Z,9.20
2017-09-27T05:08:45.831Z,9.20
2017-09-27T05:11:13.574Z,9.40
2017-09-27T05:13:41.731Z,9.40
2017-09-27T05:16:09.479Z,9.50
2017-09-27T05:18:37.176Z,9.50
2017-09-27T05:21:04.973Z,9.50
2017-09-27T05:23:32.623Z,9.50
2017-09-27T05:26:00.364Z,9.60
2017-09-27T05:28:28.202Z,9.60
2017-09-27T05:30:55.965Z,9.70
2017-09-27T05:33:23.623Z,9.70
2017-09-27T05:35:51.322Z,9.60
2017-09-27T05:38:19.001Z,9.50
2017-09-27T05:40:46.659Z,9.60
2017-09-27T05:43:14.479Z,9.70
2017-09-27T05:45:42.772Z,9.80
2017-09-27T05:48:10.827Z,10.10
2017-09-27T05:50:38.944Z,10.30
2017-09-27T05:53:06.712Z,10.30
2017-09-27T05:55:34.366Z,10.50
2017-09-27T05:58:02.106Z,10.80
2017-09-27T06:00:29.851Z,11.00
2017-09-27T06:02:57.599Z,11.20
2017-09-27T06:05:25.451Z,11.40
2017-09-27T06:07:53.199Z,11.50
2017-09-27T06:10:20.946Z,11.60
2017-09-27T06:12:48.693Z,11.70
2017-09-27T06:15:16.445Z,11.90
2017-09-27T06:17:44.103Z,12.00
2017-09-27T06:20:11.835Z,12.30
2017-09-27T06:22:39.491Z,12.50
2017-09-27T06:25:07.143Z,12.50
2017-09-27T06:27:35.585Z,12.80
2017-09-27T06:30:03.240Z,12.80
2017-09-27T06:32:30.895Z,12.80
2017-09-27T06:34:58.621Z,13.00
2017-09-27T06:37:26.278Z,13.20
2017-09-27T06:39:54.018Z,13.30
2017-09-27T06:42:21.790Z,13.50
2017-09-27T06:44:49.843Z,13.80
2017-09-27T06:47:17.976Z,13.80
2017-09-27T06:49:45.675Z,13.80
2017-09-27T06:52:13.332Z,13.80
2017-09-27T06:54:41.270Z,13.70
2017-09-27T06:57:09.067Z,13.60
2017-09-27T06:59:36.721Z,13.40
2017-09-27T07:02:04.460Z,13.20
2017-09-27T07:04:32.205Z,13.20
2017-09-27T07:06:59.854Z,13.30
2017-09-27T07:09:27.597Z,13.40
2017-09-27T07:11:55.450Z,13.60
2017-09-27T07:14:23.112Z,13.60
2017-09-27T07:16:50.767Z,13.90
2017-09-27T07:19:18.590Z,14.10
2017-09-27T07:21:46.336Z,14.40
2017-09-27T07:24:14.004Z,14.60
2017-09-27T07:26:42.241Z,15.20
2017-09-27T07:29:10.000Z,15.20
2017-09-27T07:31:37.734Z,15.50
2017-09-27T07:34:05.585Z,15.40
2017-09-27T07:36:33.247Z,15.60
2017-09-27T07:39:00.977Z,15.80
2017-09-27T07:41:28.728Z,15.80
2017-09-27T07:43:56.376Z,15.50
2017-09-27T07:46:24.035Z,15.30
2017-09-27T07:48:52.172Z,15.20
2017-09-27T07:51:19.840Z,15.20
2017-09-27T07:53:47.883Z,15.20
2017-09-27T07:56:15.687Z,15.20
2017-09-27T07:58:43.468Z,15.20
2017-09-27T08:01:11.144Z,15.30
2017-09-27T08:03:39.680Z,15.50
2017-09-27T08:06:07.459Z,15.50
2017-09-27T08:08:35.583Z,15.70
2017-09-27T08:11:03.399Z,15.70
2017-09-27T08:13:31.052Z,15.60
2017-09-27T08:15:58.704Z,15.50
2017-09-27T08:18:26.425Z,15.50
2017-09-27T08:20:54.118Z,15.50
2017-09-27T08:23:21.866Z,15.50
2017-09-27T08:25:49.613Z,15.50
2017-09-27T08:28:17.274Z,15.50
2017-09-27T08:30:44.931Z,15.50
2017-09-27T08:33:13.160Z,15.80
2017-09-27T08:35:40.814Z,15.80
2017-09-27T08:38:08.553Z,15.90
2017-09-27T08:40:36.267Z,16.00
2017-09-27T08:43:04.256Z,16.10
2017-09-27T08:45:31.908Z,16.20
2017-09-27T08:47:59.599Z,16.40
2017-09-27T08:50:27.287Z,16.50
2017-09-27T08:52:55.073Z,16.70
2017-09-27T08:55:23.166Z,17.10
2017-09-27T08:57:50.824Z,17.10
2017-09-27T09:00:18.479Z,17.20
2017-09-27T09:02:46.264Z,17.20
2017-09-27T09:05:14.389Z,16.90
2017-09-27T09:07:42.055Z,16.90
2017-09-27T09:10:10.243Z,16.80
2017-09-27T09:12:37.938Z,16.80
2017-09-27T09:15:05.686Z,16.60
2017-09-27T09:17:33.432Z,16.60
2017-09-27T09:20:01.085Z,16.60
2017-09-27T09:22:28.733Z,16.60
2017-09-27T09:24:56.445Z,16.60
2017-09-27T09:27:24.096Z,16.50
2017-09-27T09:29:51.751Z,16.40
2017-09-27T09:32:19.464Z,16.30
2017-09-27T09:34:47.154Z,16.10
2017-09-27T09:37:14.819Z,16.10
2017-09-27T09:39:43.365Z,16.40
2017-09-27T09:42:11.112Z,16.40
2017-09-27T09:44:38.858Z,16.40
2017-09-27T09:47:06.574Z,16.50
2017-09-27T09:49:34.218Z,16.60
2017-09-27T09:52:01.894Z,16.90
2017-09-27T09:54:29.595Z,17.40
2017-09-27T09:56:57.244Z,17.70
2017-09-27T09:59:24.934Z,17.90
2017-09-27T10:01:52.640Z,18.30
2017-09-27T10:04:20.310Z,18.50
2017-09-27T10:06:47.956Z,18.60
2017-09-27T10:09:15.719Z,18.70
2017-09-27T10:11:43.467Z,18.90
2017-09-27T10:14:11.213Z,19.20
2017-09-27T10:16:38.964Z,19.10
2017-09-27T10:19:06.707Z,19.20
2017-09-27T10:21:34.350Z,19.30
2017-09-27T10:24:02.202Z,19.30
2017-09-27T10:26:29.851Z,19.40
2017-09-27T10:28:57.594Z,19.40
2017-09-27T10:31:25.344Z,19.40
2017-09-27T10:33:52.987Z,19.30
2017-09-27T10:36:20.736Z,19.30
2017-09-27T10:38:48.459Z,19.20
2017-09-27T10:41:16.107Z,19.00
2017-09-27T10:43:43.751Z,18.90
2017-09-27T10:46:11.535Z,18.80
2017-09-27T10:48:39.183Z,18.60
2017-09-27T10:51:06.832Z,18.50
2017-09-27T10:53:35.170Z,18.30
2017-09-27T10:56:02.917Z,18.30
2017-09-27T10:58:30.579Z,18.30
2017-09-27T11:00:58.275Z,18.40
2017-09-27T11:03:26.143Z,18.50
2017-09-27T11:05:53.789Z,18.50
2017-09-27T11:08:21.613Z,18.60
2017-09-27T11:10:49.301Z,18.70
2017-09-27T11:13:17.016Z,18.80
2017-09-27T11:15:44.711Z,18.80
2017-09-27T11:18:12.440Z,18.90
2017-09-27T11:20:40.095Z,19.10
2017-09-27T11:23:07.933Z,19.40
2017-09-27T11:25:35.580Z,19.70
2017-09-27T11:28:03.236Z,20.10
2017-09-27T11:30:30.973Z,20.00
2017-09-27T11:32:58.719Z,19.80
2017-09-27T11:35:26.465Z,19.80
2017-09-27T11:37:54.318Z,19.90
2017-09-27T11:40:22.066Z,20.00
2017-09-27T11:42:49.813Z,20.10
2017-09-27T11:45:17.591Z,20.30
2017-09-27T11:47:45.716Z,19.90
2017-09-27T11:50:13.462Z,19.90
2017-09-27T11:52:41.173Z,19.80
2017-09-27T11:55:08.816Z,19.50
2017-09-27T11:57:36.479Z,19.70
2017-09-27T12:00:04.272Z,20.10
2017-09-27T12:02:32.410Z,20.90
2017-09-27T12:05:00.055Z,20.90
2017-09-27T12:07:27.795Z,21.20
2017-09-27T12:09:55.440Z,21.40
2017-09-27T12:12:23.087Z,21.60
2017-09-27T12:14:50.788Z,21.30
2017-09-27T12:17:18.480Z,21.40
2017-09-27T12:19:46.228Z,21.70
2017-09-27T12:22:13.975Z,21.90
2017-09-27T12:24:41.722Z,21.80
2017-09-27T12:27:09.364Z,21.70
2017-09-27T12:29:37.114Z,21.70
2017-09-27T12:32:04.860Z,21.70
2017-09-27T12:34:32.608Z,21.80
2017-09-27T12:37:00.307Z,22.00
2017-09-27T12:39:28.240Z,22.20
2017-09-27T12:41:56.274Z,22.40
2017-09-27T12:44:24.012Z,22.40
2017-09-27T12:46:51.662Z,22.70
2017-09-27T12:49:19.302Z,22.80
2017-09-27T12:51:47.045Z,22.70
2017-09-27T12:54:14.727Z,22.80
2017-09-27T12:56:42.847Z,22.70
2017-09-27T12:59:10.700Z,22.70
2017-09-27T13:01:38.444Z,22.40
2017-09-27T13:04:06.191Z,22.30
2017-09-27T13:06:33.938Z,22.20
2017-09-27T13:09:01.690Z,22.10
2017-09-27T13:11:29.338Z,22.20
2017-09-27T13:13:57.036Z,22.40
2017-09-27T13:16:24.679Z,22.60
2017-09-27T13:18:52.334Z,22.80
2017-09-27T13:21:20.124Z,23.00
2017-09-27T13:23:47.865Z,23.10
2017-09-27T13:26:15.611Z,22.70
2017-09-27T13:28:43.339Z,22.70
2017-09-27T13:31:11.003Z,22.60
2017-09-27T13:33:38.752Z,22.70
2017-09-27T13:36:06.498Z,22.60
2017-09-27T13:38:34.251Z,22.60
2017-09-27T13:41:01.993Z,22.30
2017-09-27T13:43:29.688Z,21.80
2017-09-27T13:45:57.327Z,21.60
2017-09-27T13:48:25.441Z,21.20
2017-09-27T13:50:53.212Z,21.10
2017-09-27T13:53:20.937Z,21.00
2017-09-27T13:55:48.682Z,21.00
2017-09-27T13:58:16.372Z,21.20
2017-09-27T14:00:44.075Z,21.50
2017-09-27T14:03:11.821Z,22.00
2017-09-27T14:05:39.570Z,22.40
2017-09-27T14:08:07.220Z,22.70
2017-09-27T14:10:34.961Z,22.80
2017-09-27T14:13:02.740Z,22.90
2017-09-27T14:15:30.387Z,22.60
2017-09-27T14:17:58.509Z,22.50
2017-09-27T14:20:26.254Z,22.50
2017-09-27T14:22:54.007Z,22.30
2017-09-27T14:25:21.757Z,22.20
2017-09-27T14:27:49.502Z,22.10
2017-09-27T14:30:17.161Z,22.00
2017-09-27T14:32:44.893Z,21.90
2017-09-27T14:35:12.640Z,21.80
2017-09-27T14:37:40.386Z,21.60
2017-09-27T14:40:08.043Z,21.50
2017-09-27T14:42:35.743Z,21.40
2017-09-27T14:45:03.406Z,21.20
2017-09-27T14:47:31.069Z,21.10
2017-09-27T14:49:58.770Z,21.10
2017-09-27T14:52:26.418Z,21.10
2017-09-27T14:54:54.149Z,21.10
2017-09-27T14:57:22.247Z,21.20
2017-09-27T14:59:50.015Z,21.20
2017-09-27T15:02:17.759Z,21.30
2017-09-27T15:04:45.609Z,20.80
2017-09-27T15:07:13.276Z,20.50
2017-09-27T15:09:40.920Z,20.30
2017-09-27T15:12:08.616Z,20.20
2017-09-27T15:14:36.279Z,20.20
2017-09-27T15:17:04.037Z,20.10
2017-09-27T15:19:31.815Z,20.00
2017-09-27T15:21:59.896Z,20.10
2017-09-27T15:24:27.689Z,20.10
2017-09-27T15:26:55.404Z,20.20
2017-09-27T15:29:23.083Z,20.40
2017-09-27T15:31:50.831Z,20.60
2017-09-27T15:34:18.759Z,20.70
2017-09-27T15:36:46.530Z,20.70
2017-09-27T15:39:14.180Z,20.70
2017-09-27T15:41:41.970Z,20.70
2017-09-27T15:44:09.668Z,20.60
2017-09-27T15:46:37.416Z,20.50
2017-09-27T15:49:05.144Z,20.30
2017-09-27T15:51:32.910Z,20.10
2017-09-27T15:54:00.871Z,19.90
2017-09-27T15:56:28.682Z,19.80
2017-09-27T15:58:56.331Z,19.70
2017-09-27T16:01:23.991Z,19.60
2017-09-27T16:03:51.784Z,19.50
2017-09-27T16:06:19.836Z,19.30
2017-09-27T16:08:47.962Z,19.30
2017-09-27T16:11:15.665Z,19.30
2017-09-27T16:13:43.319Z,19.20
2017-09-27T16:16:11.063Z,19.10
2017-09-27T16:18:38.848Z,19.00
2017-09-27T16:21:06.595Z,18.90
2017-09-27T16:23:34.251Z,18.80
2017-09-27T16:26:02.044Z,18.70
2017-09-27T16:28:29.734Z,18.60
2017-09-27T16:30:57.481Z,18.60
2017-09-27T16:33:25.233Z,18.50
2017-09-27T16:35:52.882Z,18.50
2017-09-27T16:38:20.551Z,18.50
2017-09-27T16:40:48.678Z,18.40
2017-09-27T16:43:16.425Z,18.40
2017-09-27T16:45:44.074Z,18.30
2017-09-27T16:48:11.782Z,18.20
2017-09-27T16:50:39.426Z,18.20
2017-09-27T16:53:07.083Z,18.10
2017-09-27T16:55:34.801Z,18.00
2017-09-27T16:58:02.451Z,18.00
2017-09-27T17:00:30.103Z,17.90
2017-09-27T17:02:57.891Z,17.90
2017-09-27T17:05:25.551Z,17.80
2017-09-27T17:07:53.287Z,17.80
2017-09-27T17:10:20.988Z,17.70
2017-09-27T17:12:48.648Z,17.70
2017-09-27T17:15:16.324Z,17.60
2017-09-27T17:17:44.026Z,17.50
2017-09-27T17:20:11.714Z,17.50
2017-09-27T17:22:39.461Z,17.40
2017-09-27T17:25:07.161Z,17.40
2017-09-27T17:27:34.852Z,17.30
2017-09-27T17:30:02.600Z,17.30
2017-09-27T17:32:30.329Z,17.30
2017-09-27T17:34:57.980Z,17.30
2017-09-27T17:37:25.641Z,17.30
2017-09-27T17:39:53.371Z,17.20
2017-09-27T17:42:21.077Z,17.20
2017-09-27T17:44:48.740Z,17.20
2017-09-27T17:47:16.444Z,17.20
2017-09-27T17:49:44.126Z,17.10
2017-09-27T17:52:11.815Z,17.10
2017-09-27T17:54:39.665Z,17.10
2017-09-27T17:57:07.359Z,17.00
2017-09-27T17:59:35.056Z,16.90
2017-09-27T18:02:02.804Z,16.80
2017-09-27T18:04:36.138Z,16.80
2017-09-27T18:07:09.562Z,16.80
2017-09-27T18:09:42.908Z,16.70
2017-09-27T18:12:22.411Z,16.70
2017-09-27T18:15:04.954Z,16.70
2017-09-27T18:17:32.803Z,16.60
2017-09-27T18:20:00.519Z,16.60
2017-09-27T18:22:28.328Z,16.50
2017-09-27T18:24:56.578Z,16.40
2017-09-27T18:27:24.311Z,16.40
2017-09-27T18:29:52.055Z,16.30
2017-09-27T18:32:19.904Z,16.30
2017-09-27T18:34:47.621Z,16.20
2017-09-27T18:37:15.303Z,16.20
2017-09-27T18:39:43.146Z,16.10
2017-09-27T18:42:10.892Z,16.20
2017-09-27T18:44:38.638Z,16.10
2017-09-27T18:47:06.489Z,16.10
2017-09-27T18:49:34.236Z,16.00
2017-09-27T18:52:01.923Z,15.90
2017-09-27T18:54:29.831Z,15.90
2017-09-27T18:56:57.487Z,15.90
2017-09-27T18:59:25.330Z,16.00
2017-09-27T19:01:53.031Z,16.00
2017-09-27T19:04:20.722Z,15.90
2017-09-27T19:06:48.376Z,15.80
2017-09-27T19:09:16.217Z,15.80
2017-09-27T19:11:43.899Z,15.80
2017-09-27T19:14:11.947Z,15.60
2017-09-27T19:16:40.047Z,15.60
2017-09-27T19:19:07.700Z,15.60
2017-09-27T19:21:35.464Z,15.50
2017-09-27T19:24:03.313Z,15.50
2017-09-27T19:26:30.974Z,15.50
2017-09-27T19:28:58.675Z,15.50
2017-09-27T19:31:26.380Z,15.40
2017-09-27T19:33:54.428Z,15.30
2017-09-27T19:36:22.580Z,15.20
2017-09-27T19:38:50.456Z,15.20
2017-09-27T19:41:19.083Z,15.10
2017-09-27T19:43:46.829Z,15.00
2017-09-27T19:46:14.551Z,15.00
2017-09-27T19:48:42.715Z,14.90
2017-09-27T19:51:10.481Z,14.80
2017-09-27T19:53:38.194Z,14.80
2017-09-27T19:56:05.895Z,14.80
2017-09-27T19:58:33.951Z,14.80
2017-09-27T20:01:01.879Z,14.80
2017-09-27T20:03:29.626Z,14.70
2017-09-27T20:05:57.316Z,14.70
2017-09-27T20:08:25.015Z,14.60
2017-09-27T20:10:52.768Z,14.50
2017-09-27T20:13:20.515Z,14.50
2017-09-27T20:15:48.467Z,14.50
2017-09-27T20:18:16.153Z,14.50
2017-09-27T20:20:43.850Z,14.40
2017-09-27T20:23:11.571Z,14.50
2017-09-27T20:25:39.224Z,14.50
2017-09-27T20:28:06.870Z,14.50
2017-09-27T20:30:34.723Z,14.50
2017-09-27T20:33:02.412Z,14.50
2017-09-27T20:35:30.547Z,14.50
2017-09-27T20:37:58.263Z,14.50
2017-09-27T20:40:25.932Z,14.60
2017-09-27T20:42:53.590Z,14.50
2017-09-27T20:45:21.335Z,14.50
2017-09-27T20:47:48.995Z,14.40
2017-09-27T20:50:17.063Z,14.20
2017-09-27T20:52:45.292Z,14.20
2017-09-27T20:55:13.039Z,14.20
2017-09-27T20:57:40.786Z,14.10
2017-09-27T21:00:08.533Z,14.00
2017-09-27T21:02:36.372Z,14.00
2017-09-27T21:05:04.748Z,14.00
2017-09-27T21:07:32.514Z,14.00
2017-09-27T21:10:00.648Z,13.90
2017-09-27T21:12:28.401Z,13.90
2017-09-27T21:14:56.158Z,13.80
2017-09-27T21:17:23.893Z,13.80
2017-09-27T21:19:51.591Z,13.80
2017-09-27T21:22:19.483Z,13.70
2017-09-27T21:24:47.152Z,13.70
2017-09-27T21:27:14.820Z,13.70
2017-09-27T21:29:42.623Z,13.70
2017-09-27T21:32:10.376Z,13.70
2017-09-27T21:34:38.122Z,13.70
2017-09-27T21:37:05.869Z,13.70
2017-09-27T21:39:33.617Z,13.70
2017-09-27T21:42:01.271Z,13.70
2017-09-27T21:44:29.111Z,13.60
2017-09-27T21:46:56.776Z,13.60
2017-09-27T21:49:24.423Z,13.60
2017-09-27T21:51:52.123Z,13.60
2017-09-27T21:54:19.770Z,13.60
2017-09-27T21:56:47.422Z,13.60
2017-09-27T21:59:15.164Z,13.60
2017-09-27T22:01:42.825Z,13.60
2017-09-27T22:04:10.476Z,13.60
2017-09-27T22:06:38.198Z,13.50
2017-09-27T22:09:05.970Z,13.50
2017-09-27T22:11:33.646Z,13.50
2017-09-27T22:14:01.775Z,13.40
2017-09-27T22:16:29.519Z,13.40
2017-09-27T22:18:57.198Z,13.30
2017-09-27T22:21:25.426Z,13.20
2017-09-27T22:23:53.086Z,13.20
2017-09-27T22:26:20.754Z,13.10
2017-09-27T22:28:48.566Z,13.00
2017-09-27T22:31:16.243Z,13.00
2017-09-27T22:33:44.313Z,13.00
2017-09-27T22:36:12.051Z,13.00
2017-09-27T22:38:39.702Z,13.00
2017-09-27T22:41:07.379Z,13.00
2017-09-27T22:43:35.103Z,12.90
2017-09-27T22:46:02.772Z,12.80
2017-09-27T22:48:30.547Z,12.70
2017-09-27T22:50:58.287Z,12.70
2017-09-27T22:53:26.097Z,12.70
2017-09-27T22:55:53.818Z,12.70
2017-09-27T22:58:22.047Z,12.60
2017-09-27T23:00:49.727Z,12.60
2017-09-27T23:03:17.443Z,12.50
2017-09-27T23:05:45.182Z,12.60
2017-09-27T23:08:12.867Z,12.70
2017-09-27T23:10:40.944Z,12.60
2017-09-27T23:13:08.698Z,12.60
2017-09-27T23:15:37.283Z,12.60
2017-09-27T23:18:05.048Z,12.60
2017-09-27T23:20:32.775Z,12.50
2017-09-27T23:23:00.443Z,12.50
2017-09-27T23:25:28.118Z,12.50
2017-09-27T23:27:56.350Z,12.40
2017-09-27T23:30:24.094Z,12.50
2017-09-27T23:32:51.771Z,12.40
2017-09-27T23:35:19.998Z,12.40
2017-09-27T23:37:47.674Z,12.40
2017-09-27T23:40:15.742Z,12.30
2017-09-27T23:42:43.546Z,12.30
2017-09-27T23:45:11.218Z,12.30
2017-09-27T23:47:39.290Z,12.20
2017-09-27T23:50:07.094Z,12.20
2017-09-27T23:52:34.842Z,12.10
2017-09-27T23:55:02.522Z,12.00
2017-09-27T23:57:30.733Z,12.00
2017-09-27T23:59:58.493Z,12.00
